Aérodrome :
LOGIN :

S'inscrire | Disclaimer

   EN    FR    IT 

 










Légende :    VFR   VFR Marginal   IFR   IFR Intensif   IFR Très Intensif
Visi : 
Plafond : 
>= 8 km
>= 3000ft
5 à 8 km
1000 à 3000 ft
1500m à 5 km
500 à 1000 ft
800 à 1500m
200 à 500 ft
< 800m
< 200 ft
Symboles :   Orages  Brouillard  Fortes neiges  Fortes précipitations  Vent > 20 kt
SIGMETs :   Divers  Orages  Givrage  Turbulence  Onde Orograph.  Cendres Volcan.






- Altitude de l'aérodrome : 74 ft
- Code IATA : EIN


EHEH - Eindhoven

DERNIER METAR :
  • 040455Z AUTO 21014KT 180V240 6000 +DZ SCT015 SCT019 BKN025 14/13 Q1015 WHT 22012KT 6000 -RADZ FEW015 SCT025 OVC050 TEMPO 4500 DZRA

METARs EXPIRÉS :
  • 040443Z AUTO 21011KT 180V260 5000 +DZ FEW034 SCT045 BKN050 15/13 Q1015 WHT 22012KT 6000 -RADZ FEW015 SCT025 OVC050 TEMPO 4500 DZRA
  • 040433Z AUTO 22008KT 190V260 9999 DZ FEW034 BKN057 OVC063 15/13 Q1015 BLU 22012KT 6000 -RADZ FEW015 SCT025 OVC050 TEMPO 4500 DZRA
  • 040425Z AUTO 23008KT 190V260 9999 DZ FEW019 BKN038 OVC054 15/12 Q1015 BLU
  • 040406Z AUTO 22007KT 190V250 9999 SCT023 SCT028 OVC039 15/12 Q1015 WHT
  • 040355Z AUTO 22008KT 9999 BKN044 OVC049 15/12 Q1015 BLU
  • 040325Z AUTO 21008KT 9999 -RA FEW035 SCT061 OVC078 15/12 Q1015 BLU
  • 040255Z AUTO 21009KT 180V240 9999 -DZ FEW081 BKN088 OVC097 15/12 Q1016 BLU
  • 040225Z AUTO 21010KT 9999 -DZ FEW066 SCT073 OVC120 15/12 Q1016 REDZ BLU
  • 040217Z AUTO 21009KT 9999 -DZRA SCT066 BKN072 BKN080 15/11 Q1016 BLU
  • 040208Z AUTO 21010KT 190V250 9999 DZ OVC100 15/11 Q1016 BLU

TAF TAF EHEH
Valide du 04 à 00h jusqu'au 05 à 06h UTC


032315Z 0400/0506 23012KT CAVOK
BECMG 0406/0408 23012G25KT BKN035
BECMG 0418/0421 22012KT FEW012 BKN015
TEMPO 0420/0506 FEW007 BKN010 OVC012
PROB30
TEMPO 0420/0506 3500 -DZRA SCT007 OVC010



MET'MAP, la Météo Aéronautique d'un coup d'oeil ! - Copyright ORBIFLY Décembre 2007 - Disclaimer

ORBIFLY MET'MAP TEAM :

Programmation & Développement : Alexandra Zaïnal
Sur une idée originale de : Baudouin d'Aumeries
Assistance à la programmation : Marc-Olivier Méhu
Soutien technique & logistique : Manuel Goepfert

Contact : metmap@orbifly.com




SOURCES & CREDITS :

   NOAA